Main page
METAR-TAF:

METAR-TAF

Airports :

Memmingen, Germany

latitude: 47-59-33N, longitude: 10-14-37E, elevation: 633 m

Current weather observation

The report was made 25 minutes ago, at 16:20 UTC
Wind 4 kt from the Northeast, varying between North and East
Temperature 26°C
Humidity 51%
Pressure 1020 hPa
Visibility 10 km or more
no clouds below 1500 m and no cumulonimbus

METAR: EDJA 201620Z 04004KT 350V100 CAVOK 26/15 Q1020

Time: 18:45 (16:45 UTC)

Forecast

The report was made 2 hours and 45 minutes ago, at 14:00 UTC
Forecast valid from 20 at 15 UTC to 20 at 24 UTC
Wind 6 kt from the Northeast
Visibility 10 km or more
no clouds below 1500 m and no cumulonimbus
Becoming
from 20 at 18 UTC to 20 at 20 UTC
Wind 3 kt from variable directions

TAF: EDJA 201400Z 2015/2024 05006KT CAVOK BECMG 2018/2020 VRB03KT

Weather observations and forecasts of more than 4000 airports (METAR and TAF reports).

The available stations are represented by yellow and red dots on the map.

Hover mouse over dot to see the name of the station.

Then click to see weather observations and forecasts.

To change the map : click on the green buttons with a black cross to zoom in, on the green button with a dash to zoom out, or on the green arrows for adjacent maps.


METAR-TAF: